createdAt,value
2022-12-03T00:00:14.249Z,18.10
2022-12-03T00:02:42.235Z,18.37
2022-12-03T00:05:11.489Z,17.10
2022-12-03T00:07:39.285Z,19.60
2022-12-03T00:10:08.837Z,16.60
2022-12-03T00:12:37.938Z,16.93
2022-12-03T00:15:07.065Z,19.37
2022-12-03T00:17:34.864Z,18.03
2022-12-03T00:20:02.770Z,16.80
2022-12-03T00:22:30.601Z,16.10
2022-12-03T00:24:58.375Z,17.13
2022-12-03T00:27:26.145Z,15.13
2022-12-03T00:29:55.287Z,18.03
2022-12-03T00:32:23.086Z,19.40
2022-12-03T00:34:51.090Z,20.70
2022-12-03T00:37:19.121Z,17.10
2022-12-03T00:39:46.944Z,18.20
2022-12-03T00:42:14.771Z,17.63
2022-12-03T00:44:42.568Z,18.53
2022-12-03T00:47:12.686Z,18.57
2022-12-03T00:49:41.234Z,18.40
2022-12-03T00:52:09.019Z,20.50
2022-12-03T00:54:36.843Z,16.73
2022-12-03T00:57:04.776Z,16.93
2022-12-03T00:59:32.577Z,17.73
2022-12-03T01:02:00.470Z,16.13
2022-12-03T01:04:29.699Z,19.90
2022-12-03T01:06:57.517Z,19.40
2022-12-03T01:09:25.356Z,18.30
2022-12-03T01:11:53.246Z,22.07
2022-12-03T01:14:21.801Z,18.67
2022-12-03T01:16:50.003Z,20.00
2022-12-03T01:19:19.366Z,19.20
2022-12-03T01:21:50.094Z,18.20
2022-12-03T01:24:19.017Z,19.63
2022-12-03T01:26:46.824Z,17.77
2022-12-03T01:29:15.561Z,17.90
2022-12-03T01:32:01.379Z,18.47
2022-12-03T01:34:29.285Z,18.47
2022-12-03T01:36:58.610Z,18.93
2022-12-03T01:39:26.476Z,19.77
2022-12-03T01:41:55.080Z,20.00
2022-12-03T01:44:25.472Z,22.33
2022-12-03T01:46:55.255Z,20.13
2022-12-03T01:49:26.112Z,21.47
2022-12-03T01:51:56.037Z,21.70
2022-12-03T01:54:29.075Z,22.20
2022-12-03T01:56:57.138Z,21.20
2022-12-03T01:59:32.966Z,19.97
2022-12-03T02:02:03.413Z,19.90
2022-12-03T02:04:31.312Z,22.70
2022-12-03T02:07:17.656Z,21.07
2022-12-03T02:09:46.806Z,22.13
2022-12-03T02:12:16.078Z,20.83
2022-12-03T02:14:44.231Z,20.37
2022-12-03T02:17:12.737Z,21.63
2022-12-03T02:19:40.762Z,21.60
2022-12-03T02:22:18.104Z,21.40
2022-12-03T02:24:53.411Z,19.90
2022-12-03T02:27:22.713Z,23.93
2022-12-03T02:29:50.591Z,22.03
2022-12-03T02:32:18.604Z,22.00
2022-12-03T02:34:47.890Z,20.17
2022-12-03T02:37:20.981Z,21.00
2022-12-03T02:39:53.009Z,23.90
2022-12-03T02:42:38.389Z,21.73
2022-12-03T02:45:10.096Z,22.57
2022-12-03T02:47:42.298Z,21.07
2022-12-03T02:50:12.230Z,21.57
2022-12-03T02:52:41.894Z,21.57
2022-12-03T02:55:10.700Z,21.10
2022-12-03T02:57:40.375Z,20.53
2022-12-03T03:00:10.414Z,20.00
2022-12-03T03:02:40.049Z,18.97
2022-12-03T03:05:10.579Z,19.17
2022-12-03T03:07:39.858Z,20.60
2022-12-03T03:10:12.418Z,19.10
2022-12-03T03:12:41.745Z,21.40
2022-12-03T03:15:12.011Z,20.77
2022-12-03T03:17:40.419Z,20.90
2022-12-03T03:20:10.072Z,20.43
2022-12-03T03:22:40.089Z,20.00
2022-12-03T03:25:09.889Z,20.77
2022-12-03T03:27:38.283Z,19.60
2022-12-03T03:30:09.858Z,17.17
2022-12-03T03:32:39.361Z,17.23
2022-12-03T03:35:11.759Z,18.00
2022-12-03T03:37:40.093Z,21.30
2022-12-03T03:40:09.204Z,20.90
2022-12-03T03:42:38.009Z,19.87
2022-12-03T03:45:09.667Z,21.63
2022-12-03T03:47:38.015Z,19.93
2022-12-03T03:50:07.058Z,20.50
2022-12-03T03:52:35.285Z,20.60
2022-12-03T03:55:03.225Z,19.50
2022-12-03T03:57:31.057Z,22.43
2022-12-03T03:59:59.347Z,21.40
2022-12-03T04:02:28.730Z,18.97
2022-12-03T04:04:56.574Z,18.67
2022-12-03T04:07:24.483Z,18.57
2022-12-03T04:09:52.327Z,16.77
2022-12-03T04:12:37.787Z,20.17
2022-12-03T04:15:06.625Z,17.90
2022-12-03T04:17:35.746Z,18.00
2022-12-03T04:20:03.658Z,14.90
2022-12-03T04:22:39.699Z,14.57
2022-12-03T04:25:26.498Z,14.73
2022-12-03T04:28:12.422Z,15.20
2022-12-03T04:30:40.537Z,15.97
2022-12-03T04:33:27.558Z,16.87
2022-12-03T04:35:55.400Z,16.10
2022-12-03T04:38:23.280Z,17.17
2022-12-03T04:41:04.098Z,16.27
2022-12-03T04:43:33.622Z,15.00
2022-12-03T04:46:02.460Z,13.57
2022-12-03T04:48:31.691Z,12.43
2022-12-03T04:50:59.477Z,16.30
2022-12-03T04:53:27.263Z,13.23
2022-12-03T04:55:55.042Z,13.10
2022-12-03T04:58:22.817Z,14.00
2022-12-03T05:00:50.616Z,13.00
2022-12-03T05:03:18.451Z,14.60
2022-12-03T05:05:47.571Z,11.63
2022-12-03T05:08:15.432Z,13.60
2022-12-03T05:10:43.284Z,13.77
2022-12-03T05:13:11.055Z,13.37
2022-12-03T05:15:38.887Z,12.30
2022-12-03T05:18:06.690Z,13.10
2022-12-03T05:20:49.655Z,12.90
2022-12-03T05:23:22.348Z,12.50
2022-12-03T05:25:50.310Z,11.73
2022-12-03T05:28:18.208Z,13.70
2022-12-03T05:30:46.045Z,13.13
2022-12-03T05:33:13.897Z,13.60
2022-12-03T05:35:41.696Z,12.40
2022-12-03T05:38:09.468Z,12.83
2022-12-03T05:40:38.835Z,14.00
2022-12-03T05:43:05.661Z,14.27
2022-12-03T05:45:35.238Z,14.77
2022-12-03T05:48:03.796Z,13.00
2022-12-03T05:50:33.960Z,15.37
2022-12-03T05:53:01.931Z,13.23
2022-12-03T05:55:30.072Z,13.80
2022-12-03T05:57:59.232Z,14.30
2022-12-03T06:00:29.248Z,13.43
2022-12-03T06:02:58.080Z,13.73
2022-12-03T06:05:26.344Z,13.60
2022-12-03T06:07:54.445Z,14.57
2022-12-03T06:10:24.635Z,13.53
2022-12-03T06:12:52.743Z,12.13
2022-12-03T06:15:42.096Z,12.73
2022-12-03T06:18:11.671Z,14.10
2022-12-03T06:20:39.503Z,13.30
2022-12-03T06:23:07.283Z,12.67
2022-12-03T06:25:35.084Z,15.20
2022-12-03T06:28:02.912Z,13.40
2022-12-03T06:30:30.699Z,14.30
2022-12-03T06:32:59.880Z,14.43
2022-12-03T06:35:27.656Z,13.93
2022-12-03T06:37:55.443Z,15.00
2022-12-03T06:40:24.365Z,14.70
2022-12-03T06:42:52.365Z,15.30
2022-12-03T06:45:20.148Z,14.00
2022-12-03T06:47:48.055Z,15.80
2022-12-03T06:50:17.342Z,15.40
2022-12-03T06:52:45.164Z,16.80
2022-12-03T06:55:12.953Z,14.57
2022-12-03T06:57:40.725Z,15.40
2022-12-03T07:00:09.973Z,13.73
2022-12-03T07:02:37.987Z,15.60
2022-12-03T07:05:06.343Z,15.10
2022-12-03T07:07:35.536Z,15.47
2022-12-03T07:10:04.388Z,17.57
2022-12-03T07:12:32.741Z,14.20
2022-12-03T07:15:00.522Z,18.13
2022-12-03T07:17:28.558Z,15.63
2022-12-03T07:19:56.353Z,15.73
2022-12-03T07:22:24.131Z,15.20
2022-12-03T07:24:53.485Z,14.83
2022-12-03T07:27:21.424Z,15.43
2022-12-03T07:29:49.195Z,15.10
2022-12-03T07:32:17.014Z,16.10
2022-12-03T07:34:44.820Z,16.07
2022-12-03T07:37:12.689Z,15.03
2022-12-03T07:39:40.513Z,15.53
2022-12-03T07:42:10.248Z,16.77
2022-12-03T07:44:38.051Z,17.77
2022-12-03T07:47:06.028Z,15.77
2022-12-03T07:49:33.867Z,17.43
2022-12-03T07:52:01.656Z,16.80
2022-12-03T07:54:29.473Z,18.30
2022-12-03T07:57:01.414Z,17.97
2022-12-03T07:59:31.262Z,18.17
2022-12-03T08:01:59.097Z,18.83
2022-12-03T08:04:26.886Z,18.90
2022-12-03T08:06:54.936Z,17.13
2022-12-03T08:09:22.859Z,18.43
2022-12-03T08:11:51.098Z,18.63
2022-12-03T08:14:20.670Z,19.03
2022-12-03T08:16:49.946Z,18.07
2022-12-03T08:19:19.159Z,21.70
2022-12-03T08:21:47.144Z,19.73
2022-12-03T08:24:17.402Z,19.63
2022-12-03T08:26:46.814Z,20.70
2022-12-03T08:29:16.680Z,22.50
2022-12-03T08:31:51.923Z,22.00
2022-12-03T08:34:22.079Z,20.03
2022-12-03T08:36:52.453Z,22.03
2022-12-03T08:39:30.136Z,19.97
2022-12-03T08:42:19.793Z,20.50
2022-12-03T08:44:48.179Z,25.23
2022-12-03T08:47:21.591Z,21.87
2022-12-03T08:49:54.801Z,23.30
2022-12-03T08:52:27.590Z,22.30
2022-12-03T08:54:57.346Z,21.90
2022-12-03T08:57:28.987Z,21.70
2022-12-03T09:00:01.036Z,21.80
2022-12-03T09:02:34.007Z,22.27
2022-12-03T09:05:14.517Z,21.27
2022-12-03T09:07:42.352Z,23.67
2022-12-03T09:10:10.915Z,22.70
2022-12-03T09:12:38.700Z,22.00
2022-12-03T09:15:07.446Z,21.30
2022-12-03T09:17:36.716Z,25.07
2022-12-03T09:20:04.966Z,23.60
2022-12-03T09:22:32.897Z,22.83
2022-12-03T09:25:00.706Z,21.40
2022-12-03T09:27:28.472Z,23.87
2022-12-03T09:29:56.289Z,23.67
2022-12-03T09:32:24.265Z,23.20
2022-12-03T09:34:54.169Z,26.57
2022-12-03T09:37:22.305Z,22.10
2022-12-03T09:39:50.412Z,24.10
2022-12-03T09:42:18.566Z,21.40
2022-12-03T09:44:46.420Z,23.10
2022-12-03T09:47:14.912Z,23.20
2022-12-03T09:49:43.225Z,22.67
2022-12-03T09:52:20.749Z,23.63
2022-12-03T09:54:48.543Z,23.53
2022-12-03T09:57:17.756Z,23.53
2022-12-03T09:59:45.587Z,23.67
2022-12-03T10:02:20.931Z,22.67
2022-12-03T10:04:49.208Z,24.17
2022-12-03T10:07:18.535Z,23.10
2022-12-03T10:09:46.509Z,23.50
2022-12-03T10:12:16.157Z,27.23
2022-12-03T10:14:44.516Z,25.10
2022-12-03T10:17:13.184Z,23.37
2022-12-03T10:19:42.635Z,23.30
2022-12-03T10:22:10.444Z,26.93
2022-12-03T10:24:39.978Z,23.30
2022-12-03T10:27:22.689Z,30.20
2022-12-03T10:29:56.689Z,23.83
2022-12-03T10:32:27.212Z,23.27
2022-12-03T10:35:10.415Z,24.47
2022-12-03T10:37:38.428Z,23.47
2022-12-03T10:40:11.862Z,24.17
2022-12-03T10:42:41.226Z,25.63
2022-12-03T10:45:20.650Z,24.73
2022-12-03T10:48:07.385Z,27.47
2022-12-03T10:50:36.389Z,25.90
2022-12-03T10:53:04.394Z,27.90
2022-12-03T10:55:39.669Z,26.13
2022-12-03T10:58:09.862Z,28.90
2022-12-03T11:00:37.781Z,27.43
2022-12-03T11:03:10.911Z,27.17
2022-12-03T11:05:38.690Z,27.60
2022-12-03T11:08:06.713Z,29.10
2022-12-03T11:10:36.448Z,26.93
2022-12-03T11:13:29.836Z,27.10
2022-12-03T11:15:58.226Z,26.60
2022-12-03T11:19:00.221Z,27.30
2022-12-03T11:21:28.081Z,27.97
2022-12-03T11:24:27.099Z,28.30
2022-12-03T11:27:23.600Z,26.60
2022-12-03T11:29:54.356Z,29.50
2022-12-03T11:33:06.111Z,27.70
2022-12-03T11:36:12.542Z,28.50
2022-12-03T11:38:53.496Z,28.10
2022-12-03T11:41:25.896Z,26.63
2022-12-03T11:44:17.539Z,29.53
2022-12-03T11:46:47.093Z,27.73
2022-12-03T11:49:33.842Z,30.70
2022-12-03T11:52:05.349Z,27.20
2022-12-03T11:54:36.119Z,28.07
2022-12-03T11:57:04.180Z,29.10
2022-12-03T11:59:33.355Z,26.87
2022-12-03T12:02:01.146Z,29.57
2022-12-03T12:04:35.308Z,27.77
2022-12-03T12:07:03.346Z,28.87
2022-12-03T12:09:52.328Z,29.67
2022-12-03T12:12:27.862Z,29.10
2022-12-03T12:14:57.282Z,26.57
2022-12-03T12:17:35.696Z,29.77
2022-12-03T12:20:13.943Z,28.23
2022-12-03T12:22:41.830Z,29.50
2022-12-03T12:25:40.626Z,27.40
2022-12-03T12:28:08.963Z,28.67
2022-12-03T12:30:38.117Z,25.70
2022-12-03T12:33:16.876Z,27.83
2022-12-03T12:35:44.688Z,30.90
2022-12-03T12:38:18.190Z,28.40
2022-12-03T12:40:49.110Z,29.27
2022-12-03T12:43:24.708Z,30.60
2022-12-03T12:45:56.288Z,29.50
2022-12-03T12:48:26.894Z,27.83
2022-12-03T12:51:01.607Z,27.70
2022-12-03T12:53:31.958Z,33.07
2022-12-03T12:56:01.839Z,30.50
2022-12-03T12:58:33.062Z,32.13
2022-12-03T13:01:07.288Z,30.50
2022-12-03T13:03:38.182Z,31.17
2022-12-03T13:06:06.581Z,32.37
2022-12-03T13:08:40.465Z,30.10
2022-12-03T13:11:31.935Z,30.60
2022-12-03T13:13:59.759Z,30.60
2022-12-03T13:16:33.664Z,30.10
2022-12-03T13:19:02.907Z,28.20
2022-12-03T13:21:38.708Z,28.97
2022-12-03T13:24:33.534Z,32.00
2022-12-03T13:27:04.027Z,28.97
2022-12-03T13:29:33.362Z,28.33
2022-12-03T13:32:10.425Z,29.20
2022-12-03T13:34:38.372Z,30.27
2022-12-03T13:37:14.029Z,31.07
2022-12-03T13:39:46.716Z,27.10
2022-12-03T13:42:38.891Z,28.67
2022-12-03T13:45:35.214Z,27.57
2022-12-03T13:48:14.648Z,29.47
2022-12-03T13:50:45.915Z,27.80
2022-12-03T13:53:21.262Z,28.30
2022-12-03T13:55:51.404Z,29.50
2022-12-03T13:58:19.253Z,28.07
2022-12-03T14:00:47.172Z,29.10
2022-12-03T14:03:17.490Z,29.20
2022-12-03T14:05:45.339Z,28.60
2022-12-03T14:08:13.217Z,27.73
2022-12-03T14:10:41.274Z,29.93
2022-12-03T14:13:08.110Z,29.33
2022-12-03T14:15:35.892Z,27.33
2022-12-03T14:18:03.689Z,28.50
2022-12-03T14:20:34.370Z,30.53
2022-12-03T14:23:02.169Z,31.73
2022-12-03T14:25:30.001Z,29.03
2022-12-03T14:27:57.786Z,28.10
2022-12-03T14:30:25.546Z,29.50
2022-12-03T14:32:53.388Z,28.10
2022-12-03T14:35:21.189Z,28.33
2022-12-03T14:37:50.334Z,29.23
2022-12-03T14:40:21.594Z,28.37
2022-12-03T14:42:49.896Z,30.27
2022-12-03T14:45:17.780Z,27.47
2022-12-03T14:47:45.577Z,29.00
2022-12-03T14:50:14.303Z,28.83
2022-12-03T14:52:43.298Z,27.57
2022-12-03T14:55:12.573Z,29.93
2022-12-03T14:57:40.397Z,29.87
2022-12-03T15:00:09.335Z,30.10
2022-12-03T15:02:37.262Z,31.20
2022-12-03T15:05:05.557Z,29.40
2022-12-03T15:07:33.389Z,32.67
2022-12-03T15:10:01.349Z,29.17
2022-12-03T15:12:31.469Z,28.30
2022-12-03T15:14:59.305Z,28.80
2022-12-03T15:17:31.775Z,29.60
2022-12-03T15:19:59.923Z,27.50
2022-12-03T15:22:27.701Z,28.13
2022-12-03T15:24:55.496Z,28.30
2022-12-03T15:27:23.361Z,28.80
2022-12-03T15:29:52.816Z,27.73
2022-12-03T15:32:20.934Z,31.77
2022-12-03T15:34:50.902Z,27.60
2022-12-03T15:37:18.927Z,26.37
2022-12-03T15:39:48.870Z,28.63
2022-12-03T15:42:16.940Z,29.70
2022-12-03T15:44:44.762Z,29.20
2022-12-03T15:47:13.952Z,28.50
2022-12-03T15:49:41.831Z,28.40
2022-12-03T15:52:09.680Z,28.67
2022-12-03T15:54:37.629Z,28.50
2022-12-03T15:57:05.505Z,29.97
2022-12-03T15:59:33.288Z,31.20
2022-12-03T16:02:01.143Z,30.63
2022-12-03T16:04:30.382Z,25.57
2022-12-03T16:06:58.382Z,31.40
2022-12-03T16:09:27.657Z,29.60
2022-12-03T16:11:55.825Z,27.90
2022-12-03T16:14:23.626Z,27.80
2022-12-03T16:16:51.945Z,28.03
2022-12-03T16:19:19.770Z,29.17
2022-12-03T16:21:48.929Z,28.50
2022-12-03T16:24:16.786Z,26.30
2022-12-03T16:26:44.632Z,30.90
2022-12-03T16:29:12.489Z,28.50
2022-12-03T16:31:40.324Z,27.10
2022-12-03T16:34:08.134Z,29.03
2022-12-03T16:36:35.936Z,26.13
2022-12-03T16:39:05.320Z,28.70
2022-12-03T16:41:33.114Z,28.87
2022-12-03T16:44:02.471Z,28.90
2022-12-03T16:46:30.579Z,31.93
2022-12-03T16:48:59.545Z,30.53
2022-12-03T16:51:30.132Z,30.20
2022-12-03T16:53:57.992Z,29.97
2022-12-03T16:56:27.159Z,32.50
2022-12-03T16:59:04.692Z,28.23
2022-12-03T17:01:32.656Z,32.90
2022-12-03T17:04:00.559Z,28.57
2022-12-03T17:06:28.357Z,30.37
2022-12-03T17:08:56.154Z,30.50
2022-12-03T17:11:23.922Z,29.00
2022-12-03T17:13:53.151Z,28.13
2022-12-03T17:16:21.149Z,28.90
2022-12-03T17:18:48.985Z,31.00
2022-12-03T17:21:16.772Z,30.27
2022-12-03T17:23:44.875Z,27.83
2022-12-03T17:26:12.684Z,30.80
2022-12-03T17:28:40.530Z,27.73
2022-12-03T17:31:09.817Z,29.43
2022-12-03T17:33:37.666Z,28.00
2022-12-03T17:36:06.589Z,30.27
2022-12-03T17:38:39.074Z,31.80
2022-12-03T17:41:08.059Z,28.07
2022-12-03T17:43:35.861Z,27.30
2022-12-03T17:46:04.983Z,30.90
2022-12-03T17:48:34.455Z,30.57
2022-12-03T17:51:02.511Z,30.93
2022-12-03T17:53:30.307Z,29.30
2022-12-03T17:55:58.090Z,30.23
2022-12-03T17:58:26.608Z,29.53
2022-12-03T18:00:58.781Z,31.43
2022-12-03T18:03:30.199Z,28.67
2022-12-03T18:05:59.412Z,28.80
2022-12-03T18:08:27.199Z,30.87
2022-12-03T18:10:55.144Z,31.80
2022-12-03T18:13:23.153Z,30.83
2022-12-03T18:15:51.011Z,30.37
2022-12-03T18:18:18.822Z,31.40
2022-12-03T18:20:46.623Z,32.27
2022-12-03T18:23:15.860Z,29.93
2022-12-03T18:25:43.855Z,31.73
2022-12-03T18:28:11.648Z,31.60
2022-12-03T18:30:39.471Z,31.53
2022-12-03T18:33:07.248Z,30.13
2022-12-03T18:35:35.150Z,30.37
2022-12-03T18:38:03.057Z,27.40
2022-12-03T18:40:32.226Z,27.60
2022-12-03T18:43:00.719Z,30.03
2022-12-03T18:45:28.535Z,27.37
2022-12-03T18:47:56.465Z,28.77
2022-12-03T18:50:24.403Z,27.30
2022-12-03T18:52:52.168Z,26.83
2022-12-03T18:55:22.617Z,29.47
2022-12-03T18:57:51.744Z,26.20
2022-12-03T19:00:20.101Z,28.93
2022-12-03T19:03:02.910Z,25.23
2022-12-03T19:05:32.393Z,27.03
2022-12-03T19:08:00.639Z,28.17
2022-12-03T19:10:28.723Z,27.53
2022-12-03T19:12:58.023Z,25.20
2022-12-03T19:15:25.811Z,26.47
2022-12-03T19:17:53.585Z,25.70
2022-12-03T19:20:21.404Z,26.17
2022-12-03T19:22:49.302Z,26.47
2022-12-03T19:25:17.244Z,23.90
2022-12-03T19:27:45.071Z,23.33
2022-12-03T19:30:14.929Z,26.20
2022-12-03T19:32:42.747Z,24.43
2022-12-03T19:35:11.270Z,25.80
2022-12-03T19:37:39.319Z,22.80
2022-12-03T19:40:10.120Z,23.80
2022-12-03T19:42:38.035Z,24.33
2022-12-03T19:45:06.968Z,21.40
2022-12-03T19:47:36.390Z,23.57
2022-12-03T19:50:04.540Z,23.07
2022-12-03T19:52:32.344Z,23.40
2022-12-03T19:55:00.997Z,22.17
2022-12-03T19:57:29.213Z,23.80
2022-12-03T19:59:57.461Z,23.27
2022-12-03T20:02:25.560Z,24.70
2022-12-03T20:04:54.797Z,23.50
2022-12-03T20:07:22.592Z,24.00
2022-12-03T20:09:51.341Z,23.13
2022-12-03T20:12:19.204Z,23.50
2022-12-03T20:14:47.022Z,24.30
2022-12-03T20:17:14.819Z,25.70
2022-12-03T20:19:42.661Z,22.63
2022-12-03T20:22:11.813Z,23.93
2022-12-03T20:24:39.722Z,25.87
2022-12-03T20:27:07.507Z,25.73
2022-12-03T20:29:35.299Z,25.20
2022-12-03T20:32:03.871Z,24.83
2022-12-03T20:34:31.825Z,25.50
2022-12-03T20:36:59.615Z,26.30
2022-12-03T20:39:28.963Z,25.03
2022-12-03T20:41:56.736Z,23.00
2022-12-03T20:44:24.544Z,24.90
2022-12-03T20:46:52.351Z,22.50
2022-12-03T20:49:20.157Z,22.43
2022-12-03T20:51:50.065Z,21.73
2022-12-03T20:54:17.906Z,24.70
2022-12-03T20:56:47.077Z,23.83
2022-12-03T20:59:16.707Z,23.67
2022-12-03T21:01:45.696Z,22.53
2022-12-03T21:04:14.638Z,21.90
2022-12-03T21:06:42.762Z,20.70
2022-12-03T21:09:11.781Z,22.50
2022-12-03T21:11:42.224Z,22.77
2022-12-03T21:14:12.449Z,21.43
2022-12-03T21:19:30.135Z,22.17
2022-12-03T21:21:57.947Z,21.33
2022-12-03T21:24:25.764Z,21.27
2022-12-03T21:26:53.574Z,22.67
2022-12-03T21:29:23.016Z,25.00
2022-12-03T21:31:51.157Z,23.30
2022-12-03T21:34:19.063Z,23.50
2022-12-03T21:36:46.976Z,21.70
2022-12-03T21:39:15.130Z,21.40
2022-12-03T21:42:33.861Z,24.23
2022-12-03T21:44:32.244Z,20.97
2022-12-03T21:47:10.773Z,24.60
2022-12-03T21:49:42.592Z,20.07
2022-12-03T21:52:10.902Z,20.77
2022-12-03T21:54:38.757Z,20.90
2022-12-03T21:57:06.777Z,20.70
2022-12-03T21:59:36.281Z,18.87
2022-12-03T22:02:04.158Z,24.60
2022-12-03T22:04:32.112Z,19.97
2022-12-03T22:07:00.143Z,21.60
2022-12-03T22:09:28.292Z,19.30
2022-12-03T22:11:57.545Z,19.87
2022-12-03T22:14:25.561Z,21.13
2022-12-03T22:16:54.965Z,20.17
2022-12-03T22:19:24.066Z,18.63
2022-12-03T22:21:51.858Z,24.33
2022-12-03T22:24:20.182Z,22.03
2022-12-03T22:26:48.426Z,21.80
2022-12-03T22:29:16.231Z,21.27
2022-12-03T22:31:44.059Z,22.70
2022-12-03T22:34:13.702Z,22.40
2022-12-03T22:36:41.790Z,24.50
2022-12-03T22:39:09.844Z,22.87
2022-12-03T22:41:37.854Z,21.10
2022-12-03T22:44:05.976Z,23.67
2022-12-03T22:46:34.096Z,24.03
2022-12-03T22:49:07.050Z,21.17
2022-12-03T22:51:37.070Z,21.37
2022-12-03T22:54:05.641Z,22.40
2022-12-03T22:56:34.063Z,23.77
2022-12-03T22:59:01.913Z,23.10
2022-12-03T23:01:32.314Z,24.50
2022-12-03T23:04:00.484Z,21.80
2022-12-03T23:06:29.449Z,25.00
2022-12-03T23:08:59.982Z,23.07
2022-12-03T23:11:30.890Z,25.60
2022-12-03T23:13:59.610Z,25.50
2022-12-03T23:16:30.498Z,22.63
2022-12-03T23:18:59.388Z,24.07
2022-12-03T23:21:30.408Z,24.27
2022-12-03T23:24:00.343Z,23.47
2022-12-03T23:26:29.074Z,24.80
2022-12-03T23:28:57.446Z,25.47
2022-12-03T23:31:27.957Z,25.10
2022-12-03T23:33:56.882Z,25.37
2022-12-03T23:36:26.527Z,23.67
2022-12-03T23:38:54.916Z,22.60
2022-12-03T23:41:25.026Z,23.10
2022-12-03T23:43:53.101Z,23.40
2022-12-03T23:46:23.046Z,25.00
2022-12-03T23:48:51.947Z,23.87
2022-12-03T23:51:21.974Z,22.60
2022-12-03T23:53:49.886Z,21.77
2022-12-03T23:56:19.882Z,24.60
2022-12-03T23:58:49.402Z,25.30
